createdAt,value
2019-01-21T00:00:48.075Z,98.15
2019-01-21T00:03:18.730Z,98.83
2019-01-21T00:05:49.366Z,98.67
2019-01-21T00:08:38.785Z,98.66
2019-01-21T00:11:21.061Z,98.86
2019-01-21T00:14:10.586Z,99.21
2019-01-21T00:16:53.071Z,99.30
2019-01-21T00:19:42.600Z,99.12
2019-01-21T00:22:24.775Z,99.19
2019-01-21T00:25:14.321Z,98.71
2019-01-21T00:27:56.861Z,99.30
2019-01-21T00:30:46.270Z,99.71
2019-01-21T00:33:28.257Z,98.88
2019-01-21T00:36:17.645Z,98.65
2019-01-21T00:39:00.185Z,99.33
2019-01-21T00:41:49.623Z,99.20
2019-01-21T00:44:31.570Z,99.66
2019-01-21T00:47:21.049Z,99.79
2019-01-21T00:50:03.242Z,100.00
2019-01-21T00:52:52.767Z,100.00
2019-01-21T00:55:35.257Z,100.00
2019-01-21T00:58:24.814Z,100.00
2019-01-21T01:01:07.001Z,100.00
2019-01-21T01:03:37.423Z,100.00
2019-01-21T01:06:27.360Z,100.00
2019-01-21T01:09:16.837Z,100.00
2019-01-21T01:11:58.952Z,100.00
2019-01-21T01:14:48.468Z,100.00
2019-01-21T01:17:37.155Z,100.00
2019-01-21T01:20:22.816Z,100.00
2019-01-21T01:23:05.097Z,100.00
2019-01-21T01:25:54.644Z,100.00
2019-01-21T01:28:36.963Z,100.00
2019-01-21T01:31:07.322Z,100.00
2019-01-21T01:33:37.655Z,100.00
2019-01-21T01:36:08.064Z,100.00
2019-01-21T01:38:39.458Z,100.00
2019-01-21T01:41:09.873Z,100.00
2019-01-21T01:43:59.393Z,100.00
2019-01-21T01:46:41.612Z,100.00
2019-01-21T01:49:31.065Z,100.00
2019-01-21T01:52:14.843Z,100.00
2019-01-21T01:55:05.913Z,100.00
2019-01-21T01:57:36.395Z,100.00
2019-01-21T02:00:11.895Z,100.00
2019-01-21T02:02:42.487Z,100.00
2019-01-21T02:05:12.923Z,100.00
2019-01-21T02:07:43.402Z,100.00
2019-01-21T02:13:46.032Z,100.00
2019-01-21T02:16:28.679Z,100.00
2019-01-21T02:19:57.827Z,100.00
2019-01-21T02:22:42.551Z,100.00
2019-01-21T02:25:54.453Z,100.00
2019-01-21T02:28:59.176Z,100.00
2019-01-21T02:32:26.836Z,100.00
2019-01-21T02:39:23.633Z,100.00
2019-01-21T02:42:08.907Z,100.00
2019-01-21T02:45:36.602Z,100.00
2019-01-21T02:51:57.125Z,100.00
2019-01-21T02:54:47.176Z,100.00
2019-01-21T02:58:14.826Z,100.00
2019-01-21T03:01:00.339Z,100.00
2019-01-21T03:04:28.044Z,100.00
2019-01-21T03:07:28.845Z,100.00
2019-01-21T03:10:56.496Z,100.00
2019-01-21T03:13:58.141Z,100.00
2019-01-21T03:17:25.817Z,100.00
2019-01-21T03:20:53.471Z,100.00
2019-01-21T03:27:26.911Z,100.00
2019-01-21T03:34:16.100Z,100.00
2019-01-21T03:37:43.744Z,100.00
2019-01-21T03:44:17.553Z,100.00
2019-01-21T03:47:21.041Z,100.00
2019-01-21T03:50:48.754Z,100.00
2019-01-21T03:53:38.327Z,100.00
2019-01-21T03:56:51.533Z,100.00
2019-01-21T03:59:36.755Z,100.00
2019-01-21T04:03:04.467Z,100.00
2019-01-21T04:06:32.158Z,100.00
2019-01-21T04:09:32.928Z,100.00
2019-01-21T04:12:56.092Z,100.00
2019-01-21T04:16:23.734Z,100.00
2019-01-21T04:19:25.394Z,100.00
2019-01-21T04:22:48.622Z,100.00
2019-01-21T04:26:01.190Z,100.00
2019-01-21T04:29:14.154Z,100.00
2019-01-21T04:32:00.435Z,100.00
2019-01-21T04:35:28.078Z,100.00
2019-01-21T04:38:29.499Z,100.00
2019-01-21T04:41:57.146Z,100.00
2019-01-21T04:45:24.830Z,100.00
2019-01-21T04:48:33.746Z,100.00
2019-01-21T04:52:01.441Z,100.00
2019-01-21T04:55:03.109Z,100.00
2019-01-21T04:58:30.780Z,100.00
2019-01-21T05:01:31.854Z,100.00
2019-01-21T05:04:36.484Z,100.00
2019-01-21T05:08:04.147Z,100.00
2019-01-21T05:11:08.070Z,100.00
2019-01-21T05:14:35.793Z,100.00
2019-01-21T05:18:03.487Z,100.00
2019-01-21T05:21:04.905Z,100.00
2019-01-21T05:24:05.309Z,100.00
2019-01-21T05:27:33.353Z,100.00
2019-01-21T05:30:19.978Z,100.00
2019-01-21T05:33:37.366Z,100.00
2019-01-21T05:36:24.438Z,100.00
2019-01-21T05:39:52.094Z,100.00
2019-01-21T05:42:53.570Z,100.00
2019-01-21T05:49:46.458Z,100.00
2019-01-21T05:53:03.843Z,100.00
2019-01-21T05:56:31.505Z,100.00
2019-01-21T05:59:33.271Z,100.00
2019-01-21T06:03:01.005Z,100.00
2019-01-21T06:06:28.698Z,100.00
2019-01-21T06:09:40.363Z,100.00
2019-01-21T06:13:08.057Z,100.00
2019-01-21T06:15:59.869Z,100.00
2019-01-21T06:19:13.833Z,100.00
2019-01-21T06:22:18.161Z,100.00
2019-01-21T06:25:33.932Z,100.00
2019-01-21T06:28:50.869Z,100.00
2019-01-21T06:31:52.005Z,100.00
2019-01-21T06:35:19.707Z,100.00
2019-01-21T06:38:23.786Z,100.00
2019-01-21T06:41:51.554Z,100.00
2019-01-21T06:44:55.889Z,100.00
2019-01-21T06:48:23.682Z,100.00
2019-01-21T06:51:51.374Z,100.00
2019-01-21T06:55:19.057Z,100.00
2019-01-21T06:58:05.805Z,100.00
2019-01-21T07:01:29.027Z,100.00
2019-01-21T07:08:14.536Z,100.00
2019-01-21T07:11:03.023Z,100.00
2019-01-21T07:14:01.817Z,100.00
2019-01-21T07:17:03.003Z,100.00
2019-01-21T07:20:30.732Z,100.00
2019-01-21T07:23:31.947Z,100.00
2019-01-21T07:26:44.680Z,100.00
2019-01-21T07:29:35.309Z,100.00
2019-01-21T07:33:03.153Z,100.00
2019-01-21T07:36:07.455Z,100.00
2019-01-21T07:39:35.189Z,100.00
2019-01-21T07:42:48.756Z,100.00
2019-01-21T07:45:58.121Z,100.00
2019-01-21T07:49:25.808Z,100.00
2019-01-21T07:52:27.073Z,99.71
2019-01-21T07:55:54.800Z,99.46
2019-01-21T07:59:14.171Z,99.41
2019-01-21T08:02:14.928Z,99.19
2019-01-21T08:05:09.277Z,98.78
2019-01-21T08:08:21.521Z,98.59
2019-01-21T08:11:22.584Z,98.42
2019-01-21T08:14:34.614Z,98.26
2019-01-21T08:17:36.031Z,98.39
2019-01-21T08:21:03.808Z,98.58
2019-01-21T08:23:52.521Z,98.63
2019-01-21T08:27:20.175Z,98.17
2019-01-21T08:30:21.476Z,98.16
2019-01-21T08:33:49.171Z,97.79
2019-01-21T08:36:50.014Z,97.01
2019-01-21T08:40:12.779Z,96.35
2019-01-21T08:43:40.446Z,96.19
2019-01-21T08:46:42.342Z,96.11
2019-01-21T08:49:55.319Z,96.15
2019-01-21T08:52:56.324Z,95.54
2019-01-21T08:56:17.226Z,95.11
2019-01-21T08:59:38.930Z,95.15
2019-01-21T09:06:40.876Z,94.06
2019-01-21T09:09:42.641Z,94.01
2019-01-21T09:13:05.092Z,93.66
2019-01-21T09:16:36.025Z,93.06
2019-01-21T09:20:03.942Z,92.83
2019-01-21T09:22:52.272Z,92.14
2019-01-21T09:26:19.951Z,92.88
2019-01-21T09:29:21.625Z,92.38
2019-01-21T09:32:49.282Z,92.36
2019-01-21T09:35:50.740Z,91.99
2019-01-21T09:39:18.824Z,91.24
2019-01-21T09:42:20.141Z,91.21
2019-01-21T09:45:35.117Z,90.58
2019-01-21T09:48:16.902Z,89.89
2019-01-21T09:54:19.898Z,89.81
2019-01-21T09:57:22.529Z,89.64
2019-01-21T10:03:43.550Z,89.56
2019-01-21T10:10:26.339Z,88.34
2019-01-21T10:13:54.001Z,88.60
2019-01-21T10:16:55.706Z,88.83
2019-01-21T10:20:23.470Z,87.77
2019-01-21T10:23:09.664Z,87.89
2019-01-21T10:26:37.336Z,86.69
2019-01-21T10:29:59.050Z,86.52
2019-01-21T10:33:00.111Z,86.78
2019-01-21T10:36:27.814Z,86.80
2019-01-21T10:39:28.987Z,86.26
2019-01-21T10:42:56.646Z,86.17
2019-01-21T10:46:27.132Z,85.57
2019-01-21T10:49:57.423Z,85.39
2019-01-21T10:52:51.954Z,84.88
2019-01-21T10:56:19.632Z,84.22
2019-01-21T10:59:20.707Z,85.20
2019-01-21T11:02:35.275Z,84.50
2019-01-21T11:06:03.040Z,84.20
2019-01-21T11:09:30.728Z,84.51
2019-01-21T11:12:35.404Z,84.54
2019-01-21T11:15:46.767Z,83.34
2019-01-21T11:18:35.900Z,84.23
2019-01-21T11:22:03.608Z,83.10
2019-01-21T11:24:53.550Z,83.52
2019-01-21T11:28:21.226Z,82.30
2019-01-21T11:31:23.786Z,83.10
2019-01-21T11:34:24.957Z,82.27
2019-01-21T11:37:52.679Z,82.06
2019-01-21T11:41:00.346Z,81.55
2019-01-21T11:44:28.058Z,81.63
2019-01-21T11:47:19.340Z,81.27
2019-01-21T11:50:32.067Z,82.35
2019-01-21T11:53:33.296Z,82.81
2019-01-21T11:57:00.992Z,82.37
2019-01-21T11:59:50.401Z,83.96
2019-01-21T12:03:23.509Z,82.93
2019-01-21T12:06:23.468Z,82.96
2019-01-21T12:09:51.166Z,82.27
2019-01-21T12:12:46.182Z,82.60
2019-01-21T12:15:56.743Z,82.34
2019-01-21T12:19:49.844Z,82.03
2019-01-21T12:23:04.684Z,82.46
2019-01-21T12:26:19.789Z,81.96
2019-01-21T12:29:24.448Z,81.89
2019-01-21T12:32:59.613Z,80.95
2019-01-21T12:35:59.930Z,81.28
2019-01-21T12:39:26.261Z,81.52
2019-01-21T12:42:36.118Z,81.74
2019-01-21T12:46:03.579Z,81.81
2019-01-21T12:49:26.831Z,82.40
2019-01-21T12:52:41.027Z,82.87
2019-01-21T12:56:03.897Z,82.80
2019-01-21T12:59:46.517Z,84.12
2019-01-21T13:02:59.264Z,84.08
2019-01-21T13:05:58.261Z,83.65
2019-01-21T13:08:44.645Z,82.88
2019-01-21T13:11:56.515Z,83.23
2019-01-21T13:15:26.027Z,82.90
2019-01-21T13:19:02.413Z,83.76
2019-01-21T13:22:29.854Z,83.08
2019-01-21T13:26:07.581Z,83.11
2019-01-21T13:29:37.141Z,83.27
2019-01-21T13:33:03.641Z,82.94
2019-01-21T13:36:12.676Z,83.30
2019-01-21T13:39:38.004Z,83.73
2019-01-21T13:42:53.205Z,83.34
2019-01-21T13:46:52.869Z,82.68
2019-01-21T13:50:07.159Z,83.15
2019-01-21T13:53:25.292Z,83.34
2019-01-21T13:56:41.277Z,82.85
2019-01-21T14:00:16.622Z,83.54
2019-01-21T14:03:30.141Z,83.58
2019-01-21T14:07:03.796Z,82.94
2019-01-21T14:10:36.250Z,83.31
2019-01-21T14:13:41.817Z,83.57
2019-01-21T14:17:13.274Z,83.75
2019-01-21T14:20:28.076Z,84.06
2019-01-21T14:23:32.879Z,83.79
2019-01-21T14:27:09.060Z,83.25
2019-01-21T14:30:39.430Z,83.81
2019-01-21T14:34:06.403Z,82.91
2019-01-21T14:37:31.467Z,83.25
2019-01-21T14:40:25.188Z,83.16
2019-01-21T14:43:38.076Z,83.27
2019-01-21T14:46:57.030Z,83.40
2019-01-21T14:49:54.635Z,89.96
2019-01-21T14:53:26.432Z,82.26
2019-01-21T14:56:45.809Z,83.00
2019-01-21T15:00:07.985Z,83.23
2019-01-21T15:03:22.486Z,82.96
2019-01-21T15:06:51.450Z,82.69
2019-01-21T15:10:18.247Z,82.83
2019-01-21T15:13:47.999Z,83.09
2019-01-21T15:17:21.894Z,83.74
2019-01-21T15:20:24.374Z,84.57
2019-01-21T15:23:36.914Z,84.74
2019-01-21T15:26:38.257Z,85.43
2019-01-21T15:29:59.721Z,85.41
2019-01-21T15:33:35.881Z,85.76
2019-01-21T15:36:42.217Z,86.44
2019-01-21T15:39:47.164Z,86.53
2019-01-21T15:43:01.508Z,87.55
2019-01-21T15:46:21.995Z,87.41
2019-01-21T15:49:35.218Z,87.60
2019-01-21T15:52:40.156Z,88.07
2019-01-21T15:56:03.362Z,88.64
2019-01-21T15:59:30.881Z,88.91
2019-01-21T16:03:00.049Z,89.51
2019-01-21T16:06:17.466Z,90.19
2019-01-21T16:09:31.876Z,90.30
2019-01-21T16:12:53.053Z,90.92
2019-01-21T16:16:32.518Z,91.83
2019-01-21T16:19:23.727Z,92.41
2019-01-21T16:23:04.877Z,92.46
2019-01-21T16:26:13.363Z,92.99
2019-01-21T16:29:11.777Z,94.00
2019-01-21T16:32:00.414Z,95.08
2019-01-21T16:35:36.046Z,94.81
2019-01-21T16:38:30.358Z,94.79
2019-01-21T16:42:09.775Z,94.68
2019-01-21T16:44:40.134Z,95.42
2019-01-21T16:47:10.591Z,95.48
2019-01-21T16:49:41.111Z,95.42
2019-01-21T16:52:11.622Z,95.12
2019-01-21T16:54:41.961Z,94.88
2019-01-21T16:57:12.384Z,94.49
2019-01-21T16:59:42.888Z,94.21
2019-01-21T17:02:14.054Z,94.24
2019-01-21T17:04:44.243Z,93.90
2019-01-21T17:07:14.917Z,94.43
2019-01-21T17:09:45.404Z,94.35
2019-01-21T17:12:15.855Z,95.02
2019-01-21T17:14:46.246Z,94.76
2019-01-21T17:17:16.707Z,95.21
2019-01-21T17:19:47.144Z,95.22
2019-01-21T17:22:17.593Z,95.14
2019-01-21T17:24:48.021Z,94.75
2019-01-21T17:27:18.533Z,95.60
2019-01-21T17:29:48.932Z,100.00
2019-01-21T17:32:19.370Z,100.00
2019-01-21T17:34:50.669Z,98.48
2019-01-21T17:37:21.466Z,95.26
2019-01-21T17:39:55.190Z,95.31
2019-01-21T17:42:25.689Z,95.64
2019-01-21T17:44:56.140Z,100.00
2019-01-21T17:47:26.666Z,97.76
2019-01-21T17:49:57.287Z,97.18
2019-01-21T17:52:28.260Z,96.64
2019-01-21T17:54:58.819Z,96.63
2019-01-21T17:57:29.177Z,96.21
2019-01-21T17:59:59.666Z,96.06
2019-01-21T18:02:30.000Z,96.91
2019-01-21T18:05:00.455Z,96.88
2019-01-21T18:07:30.927Z,97.07
2019-01-21T18:10:01.336Z,97.74
2019-01-21T18:12:31.551Z,98.22
2019-01-21T18:15:01.712Z,98.21
2019-01-21T18:17:32.127Z,97.85
2019-01-21T18:20:02.653Z,98.27
2019-01-21T18:22:33.012Z,97.92
2019-01-21T18:25:03.369Z,97.52
2019-01-21T18:27:33.711Z,96.93
2019-01-21T18:30:07.047Z,97.15
2019-01-21T18:32:38.858Z,96.67
2019-01-21T18:35:11.519Z,97.41
2019-01-21T18:37:42.143Z,97.37
2019-01-21T18:40:16.245Z,98.05
2019-01-21T18:42:47.407Z,97.87
2019-01-21T18:45:25.278Z,97.88
2019-01-21T18:47:55.922Z,98.28
2019-01-21T18:50:26.437Z,98.68
2019-01-21T18:52:57.038Z,98.67
2019-01-21T18:55:28.240Z,98.09
2019-01-21T18:57:58.137Z,98.47
2019-01-21T19:00:28.774Z,98.49
2019-01-21T19:02:59.406Z,98.37
2019-01-21T19:05:30.223Z,98.55
2019-01-21T19:08:00.893Z,98.32
2019-01-21T19:10:31.339Z,98.49
2019-01-21T19:13:03.029Z,98.42
2019-01-21T19:15:34.434Z,98.10
2019-01-21T19:18:05.132Z,96.91
2019-01-21T19:20:37.646Z,96.74
2019-01-21T19:23:08.035Z,96.07
2019-01-21T19:25:38.467Z,95.76
2019-01-21T19:28:08.818Z,95.62
2019-01-21T19:30:39.278Z,95.31
2019-01-21T19:33:09.944Z,96.48
2019-01-21T19:35:42.335Z,95.21
2019-01-21T19:38:12.727Z,94.99
2019-01-21T19:40:43.321Z,95.13
2019-01-21T19:43:13.749Z,95.48
2019-01-21T19:45:44.483Z,95.15
2019-01-21T19:48:14.846Z,99.61
2019-01-21T19:50:45.239Z,94.47
2019-01-21T19:53:22.942Z,94.42
2019-01-21T19:55:53.466Z,94.95
2019-01-21T19:58:23.959Z,94.81
2019-01-21T20:00:54.489Z,95.27
2019-01-21T20:03:25.170Z,94.32
2019-01-21T20:05:55.701Z,94.20
2019-01-21T20:08:26.418Z,94.26
2019-01-21T20:10:57.312Z,93.94
2019-01-21T20:13:27.754Z,94.35
2019-01-21T20:15:58.192Z,93.90
2019-01-21T20:18:28.914Z,93.52
2019-01-21T20:20:59.338Z,93.78
2019-01-21T20:23:29.858Z,94.02
2019-01-21T20:26:00.419Z,94.38
2019-01-21T20:28:30.883Z,93.83
2019-01-21T20:31:01.209Z,94.53
2019-01-21T20:33:31.725Z,93.96
2019-01-21T20:36:04.208Z,94.18
2019-01-21T20:38:34.550Z,93.91
2019-01-21T20:41:05.115Z,94.17
2019-01-21T20:43:35.761Z,93.88
2019-01-21T20:46:06.573Z,93.87
2019-01-21T20:48:36.989Z,93.80
2019-01-21T20:51:07.616Z,93.80
2019-01-21T20:53:38.251Z,93.60
2019-01-21T20:56:08.882Z,93.08
2019-01-21T20:58:39.485Z,93.54
2019-01-21T21:01:10.026Z,93.70
2019-01-21T21:03:40.750Z,93.87
2019-01-21T21:06:11.639Z,93.85
2019-01-21T21:08:42.229Z,93.86
2019-01-21T21:11:12.768Z,94.23
2019-01-21T21:13:43.530Z,94.33
2019-01-21T21:16:13.743Z,93.88
2019-01-21T21:18:44.130Z,93.93
2019-01-21T21:21:15.377Z,94.54
2019-01-21T21:23:46.426Z,94.67
2019-01-21T21:26:17.835Z,95.16
2019-01-21T21:28:48.986Z,95.40
2019-01-21T21:31:19.848Z,95.68
2019-01-21T21:33:50.381Z,96.11
2019-01-21T21:36:20.989Z,96.53
2019-01-21T21:38:51.734Z,96.51
2019-01-21T21:41:22.198Z,96.85
2019-01-21T21:43:52.789Z,96.57
2019-01-21T21:46:23.146Z,96.72
2019-01-21T21:48:53.778Z,96.55
2019-01-21T21:51:24.575Z,96.59
2019-01-21T21:53:55.003Z,96.84
2019-01-21T21:56:25.542Z,96.61
2019-01-21T21:58:57.352Z,96.84
2019-01-21T22:01:34.623Z,97.06
2019-01-21T22:04:06.176Z,96.68
2019-01-21T22:06:36.794Z,97.17
2019-01-21T22:09:08.933Z,97.58
2019-01-21T22:11:39.284Z,97.95
2019-01-21T22:14:09.973Z,98.08
2019-01-21T22:16:40.271Z,98.48
2019-01-21T22:19:10.651Z,98.80
2019-01-21T22:21:40.873Z,99.19
2019-01-21T22:24:11.679Z,99.38
2019-01-21T22:26:43.155Z,99.67
2019-01-21T22:29:15.392Z,99.95
2019-01-21T22:31:45.722Z,100.00
2019-01-21T22:34:16.099Z,100.00
2019-01-21T22:36:46.667Z,100.00
2019-01-21T22:39:17.180Z,100.00
2019-01-21T22:41:47.583Z,100.00
2019-01-21T22:44:17.989Z,100.00
2019-01-21T22:46:48.417Z,100.00
2019-01-21T22:49:19.810Z,100.00
2019-01-21T22:51:50.205Z,100.00
2019-01-21T22:54:20.571Z,100.00
2019-01-21T22:56:50.909Z,100.00
2019-01-21T22:59:21.743Z,100.00
2019-01-21T23:01:52.209Z,100.00
2019-01-21T23:04:22.646Z,100.00
2019-01-21T23:06:52.938Z,100.00
2019-01-21T23:09:23.342Z,100.00
2019-01-21T23:11:53.767Z,100.00
2019-01-21T23:14:24.171Z,100.00
2019-01-21T23:16:54.447Z,100.00
2019-01-21T23:19:24.970Z,100.00
2019-01-21T23:21:55.317Z,100.00
2019-01-21T23:24:25.707Z,100.00
2019-01-21T23:26:56.036Z,100.00
2019-01-21T23:29:26.368Z,100.00
2019-01-21T23:31:56.782Z,100.00
2019-01-21T23:34:27.413Z,100.00
2019-01-21T23:36:57.738Z,100.00
2019-01-21T23:39:28.062Z,100.00
2019-01-21T23:41:58.431Z,100.00
2019-01-21T23:44:28.787Z,100.00
2019-01-21T23:46:59.473Z,100.00
2019-01-21T23:49:29.715Z,100.00
2019-01-21T23:52:00.051Z,100.00
2019-01-21T23:54:30.343Z,100.00
2019-01-21T23:57:00.638Z,100.00
2019-01-21T23:59:31.112Z,100.00
